Time;durP1;ratioP1;P1;durP2;ratioP2;P2;SDS_P1;SDS_P2;PMS_P1;PMS_P2;Temp;Humidity;BMP_temperature;BMP_pressure;BME280_temperature;BME280_humidity;BME280_pressure;Samples;Min_cycle;Max_cycle;Signal;HPM_P1;HPM_P2
2022/09/01 00:02:20;;;;;;;6.50;6.10;;;17.50;99.90;;;;;;5069312;28;20630;-83
2022/09/01 00:04:46;;;;;;;7.13;6.63;;;17.50;99.90;;;;;;5069304;28;20225;-81
2022/09/01 00:07:12;;;;;;;6.67;6.10;;;17.50;99.90;;;;;;5069455;28;20175;-80
2022/09/01 00:09:39;;;;;;;7.13;6.50;;;17.50;99.90;;;;;;5071251;28;20189;-82
2022/09/01 00:12:07;;;;;;;6.80;6.20;;;17.50;99.90;;;;;;5073105;28;20173;-83
2022/09/01 00:14:38;;;;;;;6.90;6.50;;;17.50;99.90;;;;;;5072883;28;20187;-83
2022/09/01 00:17:07;;;;;;;7.20;6.60;;;17.50;99.90;;;;;;5073132;28;20170;-83
2022/09/01 00:19:34;;;;;;;6.80;6.20;;;17.40;99.90;;;;;;5072909;28;20678;-83
2022/09/01 00:22:00;;;;;;;9.20;6.73;;;17.40;99.90;;;;;;5072685;28;20650;-80
2022/09/01 00:24:26;;;;;;;7.13;6.27;;;17.40;99.90;;;;;;5072841;28;20207;-80
2022/09/01 00:26:54;;;;;;;6.40;6.00;;;17.40;99.90;;;;;;5072372;28;20183;-80
2022/09/01 00:29:20;;;;;;;6.03;5.60;;;17.40;99.90;;;;;;5072650;28;20210;-81
2022/09/01 00:31:46;;;;;;;5.80;5.40;;;17.30;99.90;;;;;;5072515;28;20174;-79
2022/09/01 00:34:12;;;;;;;6.00;5.60;;;17.30;99.90;;;;;;5072602;28;20174;-81
2022/09/01 00:36:38;;;;;;;7.13;6.40;;;17.30;99.90;;;;;;5070978;28;20674;-81
2022/09/01 00:39:05;;;;;;;7.20;6.40;;;17.30;99.90;;;;;;5071258;28;20167;-81
2022/09/01 00:41:36;;;;;;;6.03;5.53;;;17.30;99.90;;;;;;5071046;28;20190;-79
2022/09/01 00:44:06;;;;;;;6.57;6.10;;;17.30;99.90;;;;;;5054911;28;20209;-80
2022/09/01 00:46:35;;;;;;;6.43;6.03;;;17.30;99.90;;;;;;5072699;28;20246;-80
2022/09/01 00:49:13;;;;;;;6.37;5.97;;;17.20;99.90;;;;;;5072597;28;20173;-80
2022/09/01 00:51:43;;;;;;;6.67;6.27;;;17.30;99.90;;;;;;5072343;28;20162;-80
2022/09/01 00:54:14;;;;;;;6.20;5.80;;;17.20;99.90;;;;;;5072072;28;20182;-80
2022/09/01 00:56:41;;;;;;;6.53;5.90;;;17.20;99.90;;;;;;5071999;28;20183;-82
2022/09/01 00:59:09;;;;;;;6.63;6.07;;;17.20;99.90;;;;;;5070793;28;20737;-82
2022/09/01 01:01:36;;;;;;;6.57;6.17;;;17.10;99.90;;;;;;5072074;28;20174;-81
2022/09/01 01:04:06;;;;;;;6.87;6.17;;;17.20;99.90;;;;;;5071844;28;20248;-84
2022/09/01 01:06:32;;;;;;;6.47;5.97;;;17.10;99.90;;;;;;5071893;28;20191;-84
2022/09/01 01:09:00;;;;;;;6.20;5.70;;;17.10;99.90;;;;;;5072000;28;20208;-83
2022/09/01 01:11:31;;;;;;;6.30;5.90;;;17.10;99.90;;;;;;5071918;28;20232;-82
2022/09/01 01:14:10;;;;;;;6.60;6.10;;;17.10;99.90;;;;;;5071927;28;20155;-82
2022/09/01 01:16:43;;;;;;;6.10;5.73;;;17.20;99.90;;;;;;5072108;28;20232;-82
2022/09/01 01:24:57;;;;;;;6.47;5.97;;;17.20;99.90;;;;;;5079069;28;20280;-81
2022/09/01 01:27:23;;;;;;;6.53;6.13;;;17.10;99.90;;;;;;5071789;28;20199;-79
2022/09/01 01:29:51;;;;;;;7.30;6.77;;;17.10;99.90;;;;;;5071646;28;20175;-79
2022/09/01 01:32:17;;;;;;;6.57;6.17;;;17.00;99.90;;;;;;5070336;28;20620;-81
2022/09/01 01:34:45;;;;;;;6.40;6.00;;;17.10;99.90;;;;;;5071573;28;20639;-82
2022/09/01 01:37:16;;;;;;;6.30;5.87;;;17.10;99.90;;;;;;5071315;28;20631;-83
2022/09/01 01:39:43;;;;;;;6.60;6.00;;;17.20;99.90;;;;;;5070237;28;20167;-83
2022/09/01 01:42:09;;;;;;;5.93;5.43;;;17.20;99.90;;;;;;5071187;28;20180;-81
2022/09/01 01:44:37;;;;;;;6.83;6.23;;;17.20;99.90;;;;;;5070815;28;20266;-81
2022/09/01 01:47:07;;;;;;;6.30;5.90;;;17.20;99.90;;;;;;5069712;28;20171;-82
2022/09/01 01:49:35;;;;;;;6.77;6.27;;;17.10;99.90;;;;;;5071241;28;20253;-82
2022/09/01 01:52:01;;;;;;;7.10;6.43;;;17.20;99.90;;;;;;5071162;28;20182;-81
2022/09/01 01:54:30;;;;;;;6.40;5.90;;;17.20;99.90;;;;;;5071006;28;20221;-79
2022/09/01 01:56:57;;;;;;;6.83;6.30;;;17.20;99.90;;;;;;5071180;28;20172;-80
2022/09/01 01:59:23;;;;;;;6.20;5.90;;;17.20;99.90;;;;;;5071001;28;20191;-79
2022/09/01 02:01:50;;;;;;;6.43;5.97;;;17.30;99.90;;;;;;5069477;28;20282;-81
2022/09/01 02:04:18;;;;;;;6.30;5.90;;;17.30;99.90;;;;;;5070832;28;20305;-82
2022/09/01 02:06:46;;;;;;;6.30;5.90;;;17.20;99.90;;;;;;5070965;28;20172;-81
2022/09/01 02:09:14;;;;;;;6.43;5.83;;;17.20;99.90;;;;;;5070831;28;20246;-83
2022/09/01 02:11:40;;;;;;;6.13;5.73;;;17.20;99.90;;;;;;5070597;28;20178;-83
2022/09/01 02:14:08;;;;;;;5.03;4.73;;;17.10;99.90;;;;;;5071004;28;20690;-80
2022/09/01 02:16:35;;;;;;;4.63;4.30;;;17.10;99.90;;;;;;5070675;28;20175;-82
2022/09/01 02:19:03;;;;;;;4.60;4.17;;;17.10;99.90;;;;;;5070894;28;20528;-83
2022/09/01 02:21:29;;;;;;;3.73;3.63;;;17.10;99.90;;;;;;5070524;28;20197;-82
2022/09/01 02:24:01;;;;;;;3.90;3.70;;;17.10;99.90;;;;;;5070768;28;20274;-81
2022/09/01 02:26:30;;;;;;;4.07;3.87;;;17.00;99.90;;;;;;5071035;28;20224;-83
2022/09/01 02:29:03;;;;;;;3.60;3.50;;;17.00;99.90;;;;;;5070646;28;20167;-83
2022/09/01 02:31:38;;;;;;;3.77;3.47;;;17.00;99.90;;;;;;5069579;28;20163;-82
2022/09/01 02:34:09;;;;;;;3.37;3.10;;;17.00;99.90;;;;;;5070513;28;20163;-79
2022/09/01 02:36:43;;;;;;;3.83;3.60;;;16.90;99.90;;;;;;5070584;28;20167;-79
2022/09/01 02:39:10;;;;;;;3.23;3.10;;;16.90;99.90;;;;;;5070452;28;20769;-79
2022/09/01 02:41:36;;;;;;;3.60;3.40;;;16.90;99.90;;;;;;5068895;28;20171;-80
2022/09/01 02:44:10;;;;;;;3.87;3.67;;;16.90;99.90;;;;;;5070026;28;20209;-79
2022/09/01 02:46:43;;;;;;;3.50;3.30;;;16.90;99.90;;;;;;5070365;28;20154;-82
2022/09/01 02:49:16;;;;;;;3.70;3.43;;;16.80;99.90;;;;;;5068653;28;20171;-79
2022/09/01 02:51:44;;;;;;;3.50;3.40;;;16.80;99.90;;;;;;5070013;28;20496;-80
2022/09/01 02:54:16;;;;;;;3.80;3.60;;;16.60;99.90;;;;;;5069722;28;20175;-80
2022/09/01 02:56:46;;;;;;;3.67;3.47;;;16.70;99.90;;;;;;5068686;28;20593;-80
2022/09/01 02:59:20;;;;;;;3.70;3.50;;;16.70;99.90;;;;;;5076444;28;20290;-79
2022/09/01 03:01:50;;;;;;;3.90;3.70;;;16.80;99.90;;;;;;5091335;28;20226;-80
2022/09/01 03:04:17;;;;;;;3.77;3.47;;;16.80;99.90;;;;;;5074080;28;20203;-80
2022/09/01 03:06:43;;;;;;;3.80;3.60;;;16.70;99.90;;;;;;5070380;28;20159;-79
2022/09/01 03:09:13;;;;;;;3.77;3.57;;;16.70;99.90;;;;;;5070257;28;20268;-81
2022/09/01 03:11:43;;;;;;;3.67;3.47;;;16.70;99.90;;;;;;5069742;28;20197;-81
2022/09/01 03:14:09;;;;;;;3.93;3.73;;;16.70;99.90;;;;;;5070072;28;20186;-83
2022/09/01 03:16:37;;;;;;;4.50;4.13;;;16.80;99.90;;;;;;5070242;28;20179;-82
2022/09/01 03:19:07;;;;;;;4.13;3.93;;;16.80;99.90;;;;;;5069817;28;20173;-82
2022/09/01 03:21:35;;;;;;;3.63;3.53;;;16.80;99.90;;;;;;5068630;28;20182;-83
2022/09/01 03:24:02;;;;;;;4.30;3.90;;;16.80;99.90;;;;;;5069877;28;20577;-80
2022/09/01 03:26:29;;;;;;;3.63;3.53;;;16.80;99.90;;;;;;5068622;28;20660;-82
2022/09/01 03:28:55;;;;;;;4.27;3.87;;;16.90;99.90;;;;;;5069583;28;20177;-81
2022/09/01 03:31:21;;;;;;;3.80;3.50;;;16.90;99.90;;;;;;5069580;28;20346;-80
2022/09/01 03:33:47;;;;;;;5.00;4.33;;;16.80;99.90;;;;;;5069752;28;20244;-82
2022/09/01 03:36:17;;;;;;;5.40;3.53;;;16.70;99.90;;;;;;5069621;28;20174;-82
2022/09/01 03:38:48;;;;;;;4.20;4.00;;;16.80;99.90;;;;;;5069653;28;20158;-83
2022/09/01 03:41:16;;;;;;;3.47;3.37;;;16.80;99.90;;;;;;5069595;28;20195;-83
2022/09/01 03:43:43;;;;;;;3.90;3.70;;;16.70;99.90;;;;;;5071723;28;20297;-81
2022/09/01 03:46:09;;;;;;;3.60;3.50;;;16.80;99.90;;;;;;5073498;28;20246;-82
2022/09/01 03:48:35;;;;;;;3.80;3.60;;;16.70;99.90;;;;;;5073577;28;20167;-80
2022/09/01 03:51:01;;;;;;;4.20;3.90;;;16.80;99.90;;;;;;5073238;28;20635;-80
2022/09/01 03:53:30;;;;;;;3.67;3.47;;;16.80;99.90;;;;;;5073645;28;20276;-81
2022/09/01 03:55:56;;;;;;;3.57;3.33;;;16.70;99.90;;;;;;5073272;28;20246;-80
2022/09/01 03:58:23;;;;;;;3.80;3.63;;;16.70;99.90;;;;;;5072787;28;20885;-80
2022/09/01 04:00:54;;;;;;;4.40;4.10;;;16.70;99.90;;;;;;5073163;28;20169;-83
2022/09/01 04:03:28;;;;;;;3.90;3.70;;;16.70;99.90;;;;;;5073177;28;20734;-81
2022/09/01 04:05:54;;;;;;;3.77;3.43;;;16.70;99.90;;;;;;5073085;28;20555;-81
2022/09/01 04:08:27;;;;;;;4.63;3.93;;;16.60;99.90;;;;;;5072945;28;20178;-81
2022/09/01 04:10:54;;;;;;;4.17;3.90;;;16.70;99.90;;;;;;5073088;28;20190;-80
2022/09/01 04:13:25;;;;;;;4.70;4.40;;;16.70;99.90;;;;;;5072962;28;20243;-79
2022/09/01 04:15:51;;;;;;;4.50;4.20;;;16.70;99.90;;;;;;5073023;28;20156;-80
2022/09/01 04:18:20;;;;;;;5.77;4.00;;;16.70;99.90;;;;;;5072908;28;20661;-82
2022/09/01 04:20:49;;;;;;;4.50;4.10;;;16.70;99.90;;;;;;5071363;28;20178;-82
2022/09/01 04:23:19;;;;;;;4.97;4.20;;;16.70;99.90;;;;;;5071271;28;20644;-80
2022/09/01 04:25:49;;;;;;;4.70;4.37;;;16.60;99.90;;;;;;5072474;28;20684;-79
2022/09/01 04:28:21;;;;;;;4.20;3.93;;;16.60;99.90;;;;;;5072626;28;20606;-80
2022/09/01 04:30:56;;;;;;;4.73;4.43;;;16.60;99.90;;;;;;5071302;28;20401;-79
2022/09/01 04:33:36;;;;;;;4.37;4.07;;;16.50;99.90;;;;;;5073038;28;20526;-81
2022/09/01 04:36:13;;;;;;;4.73;4.20;;;16.50;99.90;;;;;;5075221;28;20225;-82
2022/09/01 04:38:39;;;;;;;4.73;4.43;;;16.60;99.90;;;;;;5085587;28;20163;-80
2022/09/01 04:41:05;;;;;;;4.50;4.20;;;16.60;99.90;;;;;;5090015;28;20166;-80
2022/09/01 04:43:33;;;;;;;4.40;4.07;;;16.50;99.90;;;;;;5077453;28;20179;-82
2022/09/01 04:45:59;;;;;;;4.57;4.27;;;16.60;99.90;;;;;;5072576;28;20213;-80
2022/09/01 04:48:25;;;;;;;4.57;3.87;;;16.70;99.90;;;;;;5071329;28;20176;-81
2022/09/01 04:50:52;;;;;;;5.83;4.30;;;16.60;99.90;;;;;;5072287;28;20167;-82
2022/09/01 04:53:18;;;;;;;4.33;4.13;;;16.60;99.90;;;;;;5072272;28;20176;-80
2022/09/01 04:55:46;;;;;;;4.30;4.00;;;16.60;99.90;;;;;;5069902;28;20181;-82
2022/09/01 04:58:18;;;;;;;4.27;3.97;;;16.50;99.90;;;;;;5070390;28;20271;-82
2022/09/01 05:00:50;;;;;;;4.00;3.80;;;16.40;99.90;;;;;;5072535;28;20161;-82
2022/09/01 05:03:20;;;;;;;3.93;3.73;;;16.40;99.90;;;;;;5072358;28;20181;-81
2022/09/01 05:05:46;;;;;;;4.47;4.17;;;16.40;99.90;;;;;;5072238;28;20224;-81
2022/09/01 05:08:19;;;;;;;4.87;3.83;;;16.40;99.90;;;;;;5071995;28;20274;-81
2022/09/01 05:10:52;;;;;;;4.70;4.37;;;16.40;99.90;;;;;;5072115;28;20152;-81
2022/09/01 05:13:22;;;;;;;4.90;4.60;;;16.30;99.90;;;;;;5072381;28;20168;-81
2022/09/01 05:16:00;;;;;;;4.30;4.00;;;16.40;99.90;;;;;;5071963;28;20217;-82
2022/09/01 05:18:27;;;;;;;5.63;3.97;;;16.40;99.90;;;;;;5071767;28;20172;-81
2022/09/01 05:20:54;;;;;;;5.80;5.40;;;16.30;99.90;;;;;;5071693;28;20175;-83
2022/09/01 05:23:21;;;;;;;4.40;4.10;;;16.40;99.90;;;;;;5071720;28;20204;-81
2022/09/01 05:25:52;;;;;;;4.30;4.00;;;16.50;99.90;;;;;;5070380;28;20224;-79
2022/09/01 05:28:19;;;;;;;4.80;4.47;;;16.50;99.90;;;;;;5071638;28;20675;-82
2022/09/01 05:30:47;;;;;;;4.23;3.90;;;16.60;99.90;;;;;;5071449;28;20179;-81
2022/09/01 05:33:17;;;;;;;4.20;3.90;;;16.60;99.90;;;;;;5071341;28;20175;-83
2022/09/01 05:35:53;;;;;;;4.63;4.23;;;16.60;99.90;;;;;;5071395;28;20194;-81
2022/09/01 05:38:19;;;;;;;7.17;4.30;;;16.60;99.90;;;;;;5072086;28;20170;-81
2022/09/01 05:40:56;;;;;;;4.83;4.00;;;16.70;99.90;;;;;;5072317;28;20171;-82
2022/09/01 05:43:24;;;;;;;5.50;4.23;;;16.70;99.90;;;;;;5070755;28;20183;-81
2022/09/01 05:45:50;;;;;;;9.00;4.23;;;16.70;99.90;;;;;;5071167;28;20207;-81
2022/09/01 05:48:20;;;;;;;6.63;4.40;;;16.70;99.90;;;;;;5071255;28;20258;-81
2022/09/01 05:50:48;;;;;;;5.40;4.70;;;16.70;99.90;;;;;;5071138;28;20167;-80
2022/09/01 05:53:16;;;;;;;5.00;4.23;;;16.70;99.90;;;;;;5070877;28;20250;-81
2022/09/01 05:55:43;;;;;;;5.10;4.53;;;16.70;99.90;;;;;;5071202;28;20179;-81
2022/09/01 05:58:13;;;;;;;5.23;4.27;;;16.70;99.90;;;;;;5069612;28;20235;-82
2022/09/01 06:00:47;;;;;;;4.60;4.30;;;16.80;99.90;;;;;;5071134;28;20159;-81
2022/09/01 06:03:14;;;;;;;5.23;4.83;;;16.80;99.90;;;;;;5070995;28;20162;-81
2022/09/01 06:05:41;;;;;;;5.03;4.27;;;16.80;99.90;;;;;;5070268;28;20210;-80
2022/09/01 06:08:09;;;;;;;4.90;4.40;;;16.90;99.90;;;;;;5068815;28;20183;-81
2022/09/01 06:10:38;;;;;;;4.13;3.90;;;17.00;99.90;;;;;;5070649;28;20598;-80
2022/09/01 06:13:06;;;;;;;5.13;4.67;;;17.10;99.90;;;;;;5070675;28;20179;-81
2022/09/01 06:15:33;;;;;;;6.97;4.30;;;17.20;99.90;;;;;;5070916;28;20179;-80
2022/09/01 06:17:59;;;;;;;4.90;4.20;;;17.40;99.90;;;;;;5084267;28;20166;-80
2022/09/01 06:20:26;;;;;;;4.43;4.13;;;17.30;99.90;;;;;;5092460;28;20308;-81
2022/09/01 06:22:52;;;;;;;4.43;4.03;;;17.30;99.90;;;;;;5080552;28;20170;-80
2022/09/01 06:25:21;;;;;;;6.63;4.03;;;17.40;99.90;;;;;;5073181;28;20203;-81
2022/09/01 06:27:47;;;;;;;5.47;4.10;;;17.60;99.90;;;;;;5070724;28;20519;-82
2022/09/01 06:30:17;;;;;;;5.70;3.80;;;17.60;99.90;;;;;;5070322;28;20171;-81
2022/09/01 06:32:44;;;;;;;4.00;3.60;;;17.70;99.90;;;;;;5070211;28;20175;-83
2022/09/01 06:35:11;;;;;;;5.87;4.07;;;17.80;99.90;;;;;;5070478;28;20179;-83
2022/09/01 06:37:42;;;;;;;3.87;3.40;;;17.90;99.90;;;;;;5069122;28;20187;-83
2022/09/01 06:40:15;;;;;;;4.37;3.97;;;18.10;99.90;;;;;;5068979;28;20183;-82
2022/09/01 06:42:46;;;;;;;4.20;3.80;;;18.20;99.90;;;;;;5070120;28;20174;-82
2022/09/01 06:45:13;;;;;;;3.70;3.43;;;18.50;99.90;;;;;;5070142;28;20677;-82
2022/09/01 06:47:43;;;;;;;4.70;3.77;;;18.60;99.90;;;;;;5070636;28;20167;-82
2022/09/01 06:50:18;;;;;;;4.03;3.70;;;18.70;99.90;;;;;;5070308;28;20688;-83
2022/09/01 06:52:44;;;;;;;3.70;3.40;;;18.80;99.90;;;;;;5069932;28;20159;-83
2022/09/01 06:55:15;;;;;;;4.63;4.23;;;18.90;99.90;;;;;;5070040;28;20183;-82
2022/09/01 06:57:51;;;;;;;3.87;3.57;;;19.10;99.90;;;;;;5068470;28;20646;-82
2022/09/01 07:00:19;;;;;;;3.67;3.33;;;19.20;99.90;;;;;;5070158;28;20170;-83
2022/09/01 07:02:53;;;;;;;3.27;2.90;;;19.20;99.90;;;;;;5070117;28;20171;-83
2022/09/01 07:05:20;;;;;;;2.97;2.77;;;19.00;99.90;;;;;;5070058;28;20285;-83
2022/09/01 07:07:53;;;;;;;2.93;2.73;;;19.00;99.90;;;;;;5069849;28;20711;-83
2022/09/01 07:10:21;;;;;;;3.00;2.70;;;18.90;99.90;;;;;;5070159;28;20589;-83
2022/09/01 07:12:51;;;;;;;3.07;2.80;;;18.80;99.90;;;;;;5070167;28;20258;-82
2022/09/01 07:15:18;;;;;;;2.97;2.80;;;18.90;99.90;;;;;;5068705;28;20187;-81
2022/09/01 07:18:02;;;;;;;2.70;2.50;;;19.00;99.90;;;;;;5069141;28;20176;-81
2022/09/01 07:20:34;;;;;;;5.77;2.90;;;19.00;99.90;;;;;;5069966;28;20167;-82
2022/09/01 07:23:00;;;;;;;3.13;2.93;;;18.90;99.90;;;;;;5070065;28;20171;-83
2022/09/01 07:25:26;;;;;;;2.80;2.63;;;18.90;99.90;;;;;;5070110;28;20662;-86
2022/09/01 07:27:53;;;;;;;3.10;2.80;;;18.90;99.90;;;;;;5069999;28;20175;-84
2022/09/01 07:30:22;;;;;;;3.17;2.50;;;18.90;99.90;;;;;;5070087;28;20179;-84
2022/09/01 07:32:49;;;;;;;2.80;2.70;;;18.90;99.90;;;;;;5069790;28;20538;-84
2022/09/01 07:35:19;;;;;;;3.27;2.93;;;18.90;99.90;;;;;;5070136;28;20186;-82
2022/09/01 07:37:47;;;;;;;3.27;3.00;;;18.90;99.90;;;;;;5069681;28;20175;-83
2022/09/01 07:40:17;;;;;;;3.00;2.70;;;18.80;99.90;;;;;;5069629;28;20172;-83
2022/09/01 07:42:46;;;;;;;2.80;2.67;;;18.90;99.90;;;;;;5068200;28;20520;-82
2022/09/01 07:45:16;;;;;;;2.77;2.57;;;18.90;99.90;;;;;;5068220;28;20964;-82
2022/09/01 07:47:43;;;;;;;2.80;2.57;;;18.90;99.90;;;;;;5069680;28;20195;-81
2022/09/01 07:50:14;;;;;;;5.83;2.87;;;18.90;99.90;;;;;;5069773;28;20176;-83
2022/09/01 07:52:48;;;;;;;2.83;2.70;;;18.90;99.90;;;;;;5069660;28;20166;-84
2022/09/01 07:55:15;;;;;;;3.17;2.40;;;19.00;99.90;;;;;;5068601;28;20197;-82
2022/09/01 07:57:44;;;;;;;2.80;2.60;;;19.00;99.90;;;;;;5085561;28;20225;-82
2022/09/01 08:00:12;;;;;;;2.30;2.10;;;19.00;99.90;;;;;;5083375;28;20171;-82
2022/09/01 08:02:43;;;;;;;2.67;2.47;;;19.00;99.90;;;;;;5067645;28;20258;-83
2022/09/01 08:05:16;;;;;;;2.63;2.40;;;19.00;99.90;;;;;;5068596;28;20263;-85
2022/09/01 08:07:46;;;;;;;2.50;2.30;;;19.00;99.90;;;;;;5069143;28;20183;-83
2022/09/01 08:10:12;;;;;;;2.30;2.20;;;18.90;99.90;;;;;;5068763;28;20702;-84
2022/09/01 08:12:38;;;;;;;2.50;2.30;;;18.90;99.90;;;;;;5069039;28;20665;-83
2022/09/01 08:15:06;;;;;;;2.60;2.50;;;18.90;99.90;;;;;;5068952;28;20183;-83
2022/09/01 08:17:32;;;;;;;2.60;2.50;;;18.90;99.90;;;;;;5069267;28;20198;-83
2022/09/01 08:19:58;;;;;;;2.30;2.10;;;19.00;99.90;;;;;;5067451;28;20248;-84
2022/09/01 08:22:24;;;;;;;2.60;2.40;;;18.90;99.90;;;;;;5069582;28;20636;-84
2022/09/01 08:24:53;;;;;;;2.33;2.20;;;19.00;99.90;;;;;;5069431;28;20210;-84
2022/09/01 08:27:19;;;;;;;2.40;2.30;;;19.00;99.90;;;;;;5068662;28;20202;-84
2022/09/01 08:29:45;;;;;;;2.43;2.33;;;19.10;99.90;;;;;;5069386;28;20712;-87
2022/09/01 08:32:11;;;;;;;2.70;2.50;;;19.10;99.90;;;;;;5079612;28;20172;-86
2022/09/01 08:34:37;;;;;;;2.60;2.13;;;19.20;99.90;;;;;;5082526;28;20178;-89
2022/09/01 08:37:05;;;;;;;2.30;2.20;;;19.20;99.90;;;;;;5074676;28;20183;-86
2022/09/01 08:39:31;;;;;;;2.90;2.70;;;19.30;99.90;;;;;;5072512;28;20653;-84
2022/09/01 08:42:25;;;;;;;3.20;2.30;;;19.20;99.90;;;;;;5070544;28;20656;-85
2022/09/01 08:45:23;;;;;;;2.20;2.10;;;19.20;99.90;;;;;;5077028;28;20209;-85
2022/09/01 08:47:54;;;;;;;2.20;2.10;;;19.20;99.90;;;;;;5072696;28;20167;-84
2022/09/01 08:50:21;;;;;;;2.27;2.10;;;19.30;99.90;;;;;;5072346;28;20215;-87
2022/09/01 08:52:57;;;;;;;2.50;2.33;;;19.40;99.90;;;;;;5084173;28;20174;-85
2022/09/01 08:55:38;;;;;;;2.80;2.20;;;19.50;99.90;;;;;;5077872;28;20181;-88
2022/09/01 08:58:05;;;;;;;1.93;1.83;;;19.50;99.90;;;;;;5072115;28;20686;-86
2022/09/01 09:00:40;;;;;;;2.50;2.30;;;19.60;99.90;;;;;;5078626;28;20634;-86
2022/09/01 09:03:24;;;;;;;3.40;1.90;;;19.70;99.90;;;;;;5083528;28;20183;-85
2022/09/01 09:05:56;;;;;;;2.37;2.27;;;19.80;99.90;;;;;;5070405;28;20211;-85
2022/09/01 09:08:34;;;;;;;2.73;2.53;;;19.90;99.90;;;;;;5071999;28;20183;-85
2022/09/01 09:11:02;;;;;;;2.50;2.40;;;20.00;99.90;;;;;;5073142;28;20183;-84
2022/09/01 09:13:51;;;;;;;2.53;2.30;;;20.20;99.90;;;;;;5072027;28;20167;-86
2022/09/01 09:16:19;;;;;;;2.20;2.03;;;20.20;99.90;;;;;;5072130;28;20159;-86
2022/09/01 09:18:55;;;;;;;2.23;2.13;;;20.30;99.90;;;;;;5071791;28;20175;-87
2022/09/01 09:21:28;;;;;;;2.50;2.40;;;20.60;99.90;;;;;;5072510;28;20193;-86
2022/09/01 09:24:19;;;;;;;2.60;2.37;;;20.70;99.90;;;;;;5078612;28;20700;-86
2022/09/01 09:26:53;;;;;;;2.30;2.20;;;20.80;99.90;;;;;;5081403;28;20715;-86
2022/09/01 09:29:20;;;;;;;2.40;2.20;;;21.00;99.90;;;;;;5074920;28;20563;-87
2022/09/01 09:31:47;;;;;;;2.23;2.13;;;21.10;99.90;;;;;;5071840;28;20266;-86
2022/09/01 09:34:35;;;;;;;2.50;2.40;;;21.10;99.90;;;;;;5071761;28;20201;-87
2022/09/01 09:37:18;;;;;;;2.20;2.10;;;21.10;99.90;;;;;;5071828;28;20151;-86
2022/09/01 09:39:44;;;;;;;2.30;2.20;;;21.20;99.90;;;;;;5078881;28;20171;-84
2022/09/01 09:42:13;;;;;;;6.70;2.40;;;21.20;99.90;;;;;;5093596;28;20191;-84
2022/09/01 09:44:46;;;;;;;2.10;2.00;;;21.40;99.90;;;;;;5093289;28;20201;-83
2022/09/01 09:47:42;;;;;;;3.60;2.07;;;21.40;99.90;;;;;;5070419;28;20178;-85
2022/09/01 09:50:11;;;;;;;2.50;2.30;;;21.60;99.90;;;;;;5065888;28;20245;-84
2022/09/01 09:52:37;;;;;;;2.10;2.00;;;21.70;99.90;;;;;;5070987;28;20535;-83
2022/09/01 09:55:25;;;;;;;2.07;1.97;;;21.80;99.90;;;;;;5071172;28;20171;-83
2022/09/01 09:57:56;;;;;;;1.80;1.80;;;21.80;99.60;;;;;;5070867;28;20219;-84
2022/09/01 10:00:33;;;;;;;1.90;1.90;;;21.60;99.50;;;;;;5071407;28;20252;-84
2022/09/01 10:03:11;;;;;;;1.77;1.67;;;21.70;99.10;;;;;;5071234;28;20174;-85
2022/09/01 10:05:41;;;;;;;2.60;1.93;;;21.70;99.20;;;;;;5070942;28;20682;-84
2022/09/01 10:08:29;;;;;;;2.20;2.10;;;21.70;99.90;;;;;;5071528;28;20159;-85
2022/09/01 10:10:55;;;;;;;4.57;2.20;;;21.80;99.30;;;;;;5067857;28;20183;-85
2022/09/01 10:13:23;;;;;;;2.47;2.20;;;21.90;99.40;;;;;;5071404;28;20305;-85
2022/09/01 10:15:52;;;;;;;2.20;2.10;;;21.90;99.50;;;;;;5071088;28;20175;-86
2022/09/01 10:18:22;;;;;;;1.87;1.87;;;21.90;99.20;;;;;;5071174;28;20179;-84
2022/09/01 10:20:58;;;;;;;2.00;1.90;;;22.00;99.60;;;;;;5070945;28;20178;-82
2022/09/01 10:23:26;;;;;;;3.00;1.97;;;22.10;99.60;;;;;;5077186;28;20171;-82
2022/09/01 10:25:58;;;;;;;2.80;1.90;;;22.20;99.20;;;;;;5071094;28;20570;-83
2022/09/01 10:28:25;;;;;;;2.80;1.90;;;22.10;98.30;;;;;;5070902;28;20171;-83
2022/09/01 10:30:53;;;;;;;2.50;1.90;;;22.20;98.60;;;;;;5070728;28;20183;-85
2022/09/01 10:33:20;;;;;;;2.83;2.00;;;22.10;99.10;;;;;;5070875;28;20167;-83
2022/09/01 10:35:50;;;;;;;2.10;1.87;;;22.10;99.40;;;;;;5070486;28;20186;-82
2022/09/01 10:38:23;;;;;;;2.90;2.00;;;22.10;98.40;;;;;;5069240;28;20211;-84
2022/09/01 10:41:05;;;;;;;1.87;1.77;;;22.10;98.50;;;;;;5070389;28;20516;-82
2022/09/01 10:43:49;;;;;;;3.77;1.80;;;22.00;98.10;;;;;;5070789;28;20171;-83
2022/09/01 10:46:20;;;;;;;1.67;1.57;;;22.00;97.70;;;;;;5070359;28;20202;-82
2022/09/01 10:48:51;;;;;;;1.50;1.50;;;22.00;98.30;;;;;;5070125;28;20516;-81
2022/09/01 10:51:17;;;;;;;2.60;1.70;;;22.00;98.20;;;;;;5052409;28;20183;-84
2022/09/01 10:53:51;;;;;;;2.03;1.70;;;22.10;97.90;;;;;;5069915;28;20175;-84
2022/09/01 10:56:37;;;;;;;1.97;1.87;;;22.20;98.20;;;;;;5069792;28;20178;-83
2022/09/01 10:59:21;;;;;;;2.00;1.90;;;22.30;99.40;;;;;;5068906;28;20222;-82
2022/09/01 11:01:47;;;;;;;2.13;2.03;;;22.40;99.80;;;;;;5070222;28;20258;-82
2022/09/01 11:04:15;;;;;;;2.40;2.20;;;22.60;99.90;;;;;;5070210;28;20341;-83
2022/09/01 11:06:41;;;;;;;2.20;2.10;;;22.50;99.60;;;;;;5070139;28;20171;-82
2022/09/01 11:09:47;;;;;;;2.33;2.10;;;22.40;99.90;;;;;;5068871;28;20171;-81
2022/09/01 11:12:38;;;;;;;2.47;2.27;;;22.30;99.90;;;;;;5058729;28;20198;-82
2022/09/01 11:15:15;;;;;;;2.33;2.10;;;22.30;99.90;;;;;;5070238;28;20202;-81
2022/09/01 11:17:49;;;;;;;3.63;2.57;;;22.30;99.90;;;;;;5070313;28;20166;-81
2022/09/01 11:20:21;;;;;;;2.43;2.23;;;22.30;99.90;;;;;;5079385;28;20175;-82
2022/09/01 11:23:23;;;;;;;2.30;2.00;;;22.30;99.90;;;;;;5092737;28;20246;-81
2022/09/01 11:25:54;;;;;;;2.57;2.40;;;22.40;99.90;;;;;;5073523;28;20316;-82
2022/09/01 11:28:22;;;;;;;2.60;2.40;;;22.50;99.90;;;;;;5071469;28;20160;-82
2022/09/01 11:30:57;;;;;;;2.43;2.33;;;22.50;99.90;;;;;;5069430;28;20174;-81
2022/09/01 11:33:31;;;;;;;2.60;2.50;;;22.50;99.90;;;;;;5070663;28;20155;-81
2022/09/01 11:36:06;;;;;;;2.80;2.63;;;22.40;99.90;;;;;;5070546;28;20245;-82
2022/09/01 11:38:52;;;;;;;2.97;2.73;;;22.40;99.90;;;;;;5068781;28;20198;-81
2022/09/01 11:41:31;;;;;;;3.43;2.40;;;22.30;99.90;;;;;;5070053;28;20166;-81
2022/09/01 11:43:59;;;;;;;3.27;2.50;;;22.20;99.90;;;;;;5069145;28;20538;-81
2022/09/01 11:46:33;;;;;;;2.50;2.37;;;22.00;99.90;;;;;;5070239;28;20171;-81
2022/09/01 11:49:07;;;;;;;2.97;2.83;;;21.80;99.90;;;;;;5069870;28;20568;-81
2022/09/01 11:51:46;;;;;;;6.53;2.63;;;21.90;99.90;;;;;;5068821;28;20167;-82
2022/09/01 11:54:13;;;;;;;2.50;2.30;;;21.80;99.90;;;;;;5069886;28;20178;-82
2022/09/01 11:56:39;;;;;;;4.23;2.70;;;21.80;99.90;;;;;;5068500;28;20236;-81
2022/09/01 11:59:04;;;;;;;2.53;2.43;;;21.90;99.90;;;;;;5068220;28;20239;-81
2022/09/01 12:01:38;;;;;;;3.43;2.60;;;21.90;99.90;;;;;;5070305;28;20565;-85
2022/09/01 12:04:26;;;;;;;3.30;3.00;;;22.00;99.90;;;;;;5069248;28;20634;-83
2022/09/01 12:07:01;;;;;;;3.30;2.07;;;22.10;99.90;;;;;;5073974;28;20190;-83
2022/09/01 12:09:32;;;;;;;2.20;2.10;;;22.30;99.90;;;;;;5075030;28;20194;-84
2022/09/01 12:11:59;;;;;;;2.40;2.20;;;22.40;99.90;;;;;;5076073;28;20199;-82
2022/09/01 12:14:25;;;;;;;2.83;2.53;;;22.50;99.90;;;;;;5073407;28;20172;-83
2022/09/01 12:17:02;;;;;;;4.60;3.03;;;22.70;99.90;;;;;;5074185;28;20174;-83
2022/09/01 12:19:31;;;;;;;2.40;2.30;;;22.80;99.90;;;;;;5073798;28;20216;-83
2022/09/01 12:22:14;;;;;;;2.47;2.03;;;22.90;99.90;;;;;;5072913;28;20191;-83
2022/09/01 12:24:45;;;;;;;2.13;2.03;;;22.80;99.90;;;;;;5073010;28;20218;-83
2022/09/01 12:27:12;;;;;;;2.20;2.10;;;22.70;99.90;;;;;;5071563;28;20175;-83
2022/09/01 12:29:39;;;;;;;2.30;2.10;;;22.70;99.90;;;;;;5071457;28;20313;-82
2022/09/01 12:32:05;;;;;;;3.67;2.37;;;22.50;99.90;;;;;;5072832;28;20182;-82
2022/09/01 12:34:42;;;;;;;2.87;2.60;;;22.30;99.90;;;;;;5071403;28;20183;-82
2022/09/01 12:37:09;;;;;;;2.50;2.30;;;22.10;99.90;;;;;;5073487;28;20660;-82
2022/09/01 12:39:46;;;;;;;2.30;2.20;;;22.00;99.90;;;;;;5072895;28;20618;-81
2022/09/01 12:42:23;;;;;;;3.37;2.50;;;21.90;99.90;;;;;;5073114;28;20170;-83
2022/09/01 12:44:56;;;;;;;3.00;2.37;;;21.80;99.90;;;;;;5072591;28;20589;-82
2022/09/01 12:47:37;;;;;;;2.40;2.20;;;21.70;99.90;;;;;;5072792;28;20641;-83
2022/09/01 12:50:14;;;;;;;6.07;2.53;;;21.70;99.90;;;;;;5072830;28;20232;-82
2022/09/01 12:53:01;;;;;;;2.47;2.27;;;21.60;99.90;;;;;;5071776;28;20175;-81
2022/09/01 12:55:32;;;;;;;2.27;2.10;;;21.60;99.90;;;;;;5072693;28;20523;-82
2022/09/01 12:58:00;;;;;;;1.90;1.80;;;21.50;99.90;;;;;;5072532;28;20227;-82
2022/09/01 13:00:34;;;;;;;2.00;1.77;;;21.40;99.90;;;;;;5089561;28;20173;-82
2022/09/01 13:03:16;;;;;;;2.00;1.90;;;21.30;99.90;;;;;;5095195;28;20150;-81
2022/09/01 13:05:45;;;;;;;2.00;1.90;;;21.40;99.90;;;;;;5080916;28;20283;-83
2022/09/01 13:08:18;;;;;;;3.63;2.17;;;21.30;99.90;;;;;;5073463;28;20172;-83
2022/09/01 13:11:15;;;;;;;2.40;2.20;;;21.40;99.90;;;;;;5072940;28;20155;-83
2022/09/01 13:13:41;;;;;;;1.70;1.60;;;21.50;99.90;;;;;;5071270;28;20269;-82